createdAt,value
2023-04-27T00:00:11.599Z,0.47
2023-04-27T00:02:39.808Z,0.40
2023-04-27T00:05:08.624Z,0.60
2023-04-27T00:07:38.731Z,0.40
2023-04-27T00:10:08.444Z,0.50
2023-04-27T00:12:36.316Z,0.40
2023-04-27T00:15:04.656Z,0.40
2023-04-27T00:17:32.824Z,0.53
2023-04-27T00:20:01.672Z,0.40
2023-04-27T00:22:29.873Z,0.50
2023-04-27T00:24:59.166Z,0.50
2023-04-27T00:27:27.154Z,0.40
2023-04-27T00:29:55.844Z,0.47
2023-04-27T00:32:23.954Z,0.30
2023-04-27T00:34:51.926Z,0.40
2023-04-27T00:37:19.938Z,0.40
2023-04-27T00:39:47.988Z,0.40
2023-04-27T00:42:19.696Z,0.40
2023-04-27T00:44:48.131Z,0.40
2023-04-27T00:47:17.381Z,0.30
2023-04-27T00:49:45.788Z,0.40
2023-04-27T00:52:13.971Z,0.50
2023-04-27T00:54:41.839Z,0.50
2023-04-27T00:57:10.066Z,0.40
2023-04-27T00:59:40.434Z,0.50
2023-04-27T01:02:08.471Z,0.40
2023-04-27T01:04:37.010Z,0.50
2023-04-27T01:07:05.213Z,0.40
2023-04-27T01:09:33.329Z,0.40
2023-04-27T01:12:01.344Z,0.33
2023-04-27T01:14:30.428Z,0.60
2023-04-27T01:16:59.980Z,0.50
2023-04-27T01:19:28.954Z,0.40
2023-04-27T01:21:57.148Z,0.50
2023-04-27T01:24:26.777Z,0.40
2023-04-27T01:26:54.878Z,0.43
2023-04-27T01:29:22.763Z,0.50
2023-04-27T01:31:50.865Z,0.60
2023-04-27T01:34:19.894Z,0.47
2023-04-27T01:36:47.845Z,0.40
2023-04-27T01:39:16.433Z,0.40
2023-04-27T01:41:45.782Z,0.40
2023-04-27T01:44:14.794Z,0.50
2023-04-27T01:46:43.704Z,0.43
2023-04-27T01:49:11.938Z,0.40
2023-04-27T01:51:40.006Z,0.50
2023-04-27T01:54:08.060Z,0.40
2023-04-27T01:56:36.280Z,0.60
2023-04-27T01:59:05.751Z,0.50
2023-04-27T02:01:33.739Z,0.40
2023-04-27T02:04:03.348Z,0.40
2023-04-27T02:06:31.416Z,0.40
2023-04-27T02:08:59.704Z,0.40
2023-04-27T02:11:29.196Z,0.43
2023-04-27T02:13:57.086Z,0.50
2023-04-27T02:16:26.453Z,0.43
2023-04-27T02:18:57.701Z,0.50
2023-04-27T02:21:25.759Z,0.67
2023-04-27T02:23:53.681Z,0.50
2023-04-27T02:26:22.632Z,0.30
2023-04-27T02:28:51.086Z,0.40
2023-04-27T02:31:19.543Z,0.50
2023-04-27T02:33:49.828Z,0.43
2023-04-27T02:36:17.706Z,0.50
2023-04-27T02:38:45.692Z,0.40
2023-04-27T02:41:13.711Z,0.47
2023-04-27T02:43:41.886Z,0.50
2023-04-27T02:46:09.915Z,0.40
2023-04-27T02:48:37.923Z,0.40
2023-04-27T02:51:07.758Z,0.50
2023-04-27T02:53:38.103Z,0.50
2023-04-27T02:56:07.517Z,0.50
2023-04-27T02:58:35.712Z,0.50
2023-04-27T03:01:03.965Z,0.67
2023-04-27T03:03:32.449Z,0.30
2023-04-27T03:06:00.517Z,0.47
2023-04-27T03:08:29.711Z,0.40
2023-04-27T03:10:59.821Z,0.40
2023-04-27T03:13:28.095Z,0.43
2023-04-27T03:15:56.181Z,0.37
2023-04-27T03:18:24.221Z,0.50
2023-04-27T03:20:52.325Z,0.50
2023-04-27T03:23:20.286Z,0.50
2023-04-27T03:25:49.700Z,0.50
2023-04-27T03:28:17.689Z,0.47
2023-04-27T03:30:46.512Z,0.50
2023-04-27T03:33:14.690Z,0.50
2023-04-27T03:35:44.553Z,0.50
2023-04-27T03:38:12.438Z,0.37
2023-04-27T03:40:40.304Z,0.40
2023-04-27T03:43:09.537Z,0.50
2023-04-27T03:45:37.764Z,0.50
2023-04-27T03:48:07.066Z,0.50
2023-04-27T03:50:35.162Z,0.80
2023-04-27T03:53:03.273Z,0.40
2023-04-27T03:55:31.513Z,0.40
2023-04-27T03:57:59.688Z,0.47
2023-04-27T04:00:29.118Z,0.40
2023-04-27T04:02:57.117Z,0.47
2023-04-27T04:05:26.032Z,0.40
2023-04-27T04:07:55.310Z,0.40
2023-04-27T04:10:23.599Z,0.50
2023-04-27T04:12:51.848Z,0.50
2023-04-27T04:15:20.448Z,0.40
2023-04-27T04:17:49.765Z,0.50
2023-04-27T04:20:18.024Z,0.40
2023-04-27T04:22:45.976Z,0.50
2023-04-27T04:25:14.188Z,0.50
2023-04-27T04:27:42.589Z,0.47
2023-04-27T04:30:12.724Z,0.50
2023-04-27T04:32:43.582Z,0.50
2023-04-27T04:35:13.295Z,0.60
2023-04-27T04:37:44.609Z,0.50
2023-04-27T04:40:21.501Z,0.50
2023-04-27T04:43:04.912Z,0.47
2023-04-27T04:45:34.127Z,0.50
2023-04-27T04:48:08.922Z,0.47
2023-04-27T04:50:42.870Z,0.50
2023-04-27T04:53:11.554Z,0.47
2023-04-27T04:55:39.521Z,0.40
2023-04-27T04:58:07.655Z,0.50
2023-04-27T05:00:36.941Z,0.40
2023-04-27T05:03:07.341Z,0.40
2023-04-27T05:05:35.802Z,0.40
2023-04-27T05:08:05.570Z,0.40
2023-04-27T05:10:34.029Z,0.50
2023-04-27T05:13:01.969Z,0.30
2023-04-27T05:15:29.909Z,0.47
2023-04-27T05:17:57.981Z,0.40
2023-04-27T05:20:26.016Z,0.30
2023-04-27T05:22:54.281Z,0.40
2023-04-27T05:25:23.708Z,0.43
2023-04-27T05:27:52.243Z,0.50
2023-04-27T05:30:20.123Z,0.40
2023-04-27T05:32:48.206Z,0.47
2023-04-27T05:35:16.377Z,0.40
2023-04-27T05:37:46.976Z,0.40
2023-04-27T05:40:16.451Z,0.30
2023-04-27T05:42:47.357Z,0.50
2023-04-27T05:45:15.610Z,0.40
2023-04-27T05:47:43.976Z,0.40
2023-04-27T05:50:12.298Z,0.40
2023-04-27T05:52:40.968Z,0.40
2023-04-27T05:55:10.748Z,0.60
2023-04-27T05:57:40.486Z,0.30
2023-04-27T06:00:12.784Z,0.40
2023-04-27T06:02:41.016Z,0.50
2023-04-27T06:05:11.385Z,0.40
2023-04-27T06:07:39.723Z,0.37
2023-04-27T06:10:09.339Z,0.37
2023-04-27T06:12:37.246Z,0.30
2023-04-27T06:15:08.568Z,0.27
2023-04-27T06:17:38.603Z,0.20
2023-04-27T06:20:08.165Z,0.20
2023-04-27T06:22:36.902Z,0.20
2023-04-27T06:25:07.862Z,0.27
2023-04-27T06:27:36.337Z,0.30
2023-04-27T06:30:05.096Z,0.40
2023-04-27T06:32:33.107Z,0.40
2023-04-27T06:35:03.621Z,0.40
2023-04-27T06:37:37.748Z,0.40
2023-04-27T06:40:06.793Z,0.40
2023-04-27T06:42:35.069Z,0.40
2023-04-27T06:45:03.473Z,0.30
2023-04-27T06:47:31.544Z,0.33
2023-04-27T06:50:00.005Z,0.30
2023-04-27T06:52:29.544Z,0.30
2023-04-27T06:54:58.607Z,0.30
2023-04-27T06:57:26.900Z,0.20
2023-04-27T06:59:57.125Z,0.30
2023-04-27T07:02:29.841Z,0.23
2023-04-27T07:04:58.003Z,0.27
2023-04-27T07:07:26.132Z,0.20
2023-04-27T07:09:58.046Z,0.20
2023-04-27T07:12:26.398Z,0.30
2023-04-27T07:14:54.515Z,0.20
2023-04-27T07:17:22.619Z,0.30
2023-04-27T07:19:52.626Z,0.30
2023-04-27T07:22:20.833Z,0.20
2023-04-27T07:24:48.758Z,0.20
2023-04-27T07:27:18.377Z,0.20
2023-04-27T07:29:46.277Z,0.30
2023-04-27T07:32:14.988Z,0.20
2023-04-27T07:34:52.532Z,0.20
2023-04-27T07:37:21.279Z,0.20
2023-04-27T07:39:50.128Z,0.20
2023-04-27T07:42:19.596Z,0.20
2023-04-27T07:44:47.658Z,0.20
2023-04-27T07:47:15.867Z,0.20
2023-04-27T07:49:46.495Z,0.23
2023-04-27T07:52:14.683Z,0.20
2023-04-27T07:54:44.688Z,0.20
2023-04-27T07:57:14.092Z,0.20
2023-04-27T07:59:45.906Z,0.20
2023-04-27T08:02:19.093Z,0.23
2023-04-27T08:04:48.784Z,0.30
2023-04-27T08:07:19.459Z,0.20
2023-04-27T08:09:52.442Z,0.20
2023-04-27T08:12:21.489Z,0.20
2023-04-27T08:14:51.891Z,0.20
2023-04-27T08:17:21.587Z,0.20
2023-04-27T08:19:52.612Z,0.20
2023-04-27T08:22:21.666Z,0.20
2023-04-27T08:24:49.600Z,0.23
2023-04-27T08:27:19.983Z,0.20
2023-04-27T08:30:00.386Z,0.20
2023-04-27T08:32:35.437Z,0.30
2023-04-27T08:35:05.712Z,0.20
2023-04-27T08:37:33.846Z,0.20
2023-04-27T08:40:01.724Z,0.20
2023-04-27T08:42:30.713Z,0.20
2023-04-27T08:44:58.792Z,0.20
2023-04-27T08:47:41.205Z,0.20
2023-04-27T08:50:13.172Z,0.20
2023-04-27T08:52:41.644Z,0.20
2023-04-27T08:55:13.324Z,0.20
2023-04-27T08:57:43.056Z,0.20
2023-04-27T09:00:15.725Z,0.20
2023-04-27T09:03:04.396Z,0.30
2023-04-27T09:06:03.764Z,0.20
2023-04-27T09:08:50.810Z,0.20
2023-04-27T09:11:31.646Z,0.20
2023-04-27T09:14:02.487Z,0.20
2023-04-27T09:16:32.816Z,0.20
2023-04-27T09:19:08.802Z,0.20
2023-04-27T09:21:40.461Z,0.20
2023-04-27T09:24:13.584Z,0.17
2023-04-27T09:26:42.772Z,0.20
2023-04-27T09:29:12.574Z,0.20
2023-04-27T09:31:43.069Z,0.20
2023-04-27T09:34:11.361Z,0.20
2023-04-27T09:36:56.240Z,0.20
2023-04-27T09:39:36.520Z,0.20
2023-04-27T09:42:05.603Z,0.20
2023-04-27T09:44:34.575Z,0.20
2023-04-27T09:47:05.748Z,0.20
2023-04-27T09:49:36.186Z,0.20
2023-04-27T09:52:06.331Z,0.27
2023-04-27T09:54:40.223Z,0.20
2023-04-27T09:57:23.498Z,0.20
2023-04-27T10:00:23.766Z,0.20
2023-04-27T10:03:07.881Z,0.20
2023-04-27T10:06:20.044Z,0.20
2023-04-27T10:08:53.061Z,0.20
2023-04-27T10:11:21.652Z,0.20
2023-04-27T10:13:54.857Z,0.20
2023-04-27T10:16:23.378Z,0.20
2023-04-27T10:18:56.806Z,0.20
2023-04-27T10:21:32.963Z,0.20
2023-04-27T10:24:14.963Z,0.20
2023-04-27T10:26:48.555Z,0.20
2023-04-27T10:29:18.532Z,0.20
2023-04-27T10:31:49.084Z,0.20
2023-04-27T10:34:33.134Z,0.20
2023-04-27T10:37:06.757Z,0.30
2023-04-27T10:39:47.609Z,0.20
2023-04-27T10:42:28.449Z,0.20
2023-04-27T10:44:58.846Z,0.20
2023-04-27T10:47:41.436Z,0.20
2023-04-27T10:50:13.404Z,0.20
2023-04-27T10:52:46.282Z,0.20
2023-04-27T10:55:18.830Z,0.20
2023-04-27T10:57:50.136Z,0.20
2023-04-27T11:00:25.988Z,0.20
2023-04-27T11:02:56.195Z,0.20
2023-04-27T11:05:30.574Z,0.20
2023-04-27T11:08:13.009Z,0.20
2023-04-27T11:10:45.520Z,0.20
2023-04-27T11:13:15.898Z,0.20
2023-04-27T11:15:50.230Z,0.20
2023-04-27T11:18:19.610Z,0.20
2023-04-27T11:20:56.615Z,0.20
2023-04-27T11:23:26.775Z,0.20
2023-04-27T11:25:56.685Z,0.20
2023-04-27T11:28:26.079Z,0.20
2023-04-27T11:30:59.301Z,0.20
2023-04-27T11:33:28.640Z,0.20
2023-04-27T11:35:56.788Z,0.20
2023-04-27T11:38:25.027Z,0.20
2023-04-27T11:41:10.865Z,0.20
2023-04-27T11:43:44.733Z,0.20
2023-04-27T11:46:13.408Z,0.20
2023-04-27T11:48:41.584Z,0.20
2023-04-27T11:51:11.986Z,0.30
2023-04-27T11:53:42.652Z,0.20
2023-04-27T11:56:12.100Z,0.20
2023-04-27T11:58:41.390Z,0.20
2023-04-27T12:01:13.486Z,0.20
2023-04-27T12:03:42.205Z,0.20
2023-04-27T12:06:22.034Z,0.20
2023-04-27T12:08:59.164Z,0.20
2023-04-27T12:11:29.490Z,0.20
2023-04-27T12:13:59.270Z,0.20
2023-04-27T12:16:27.657Z,0.20
2023-04-27T12:18:56.239Z,0.20
2023-04-27T12:21:24.497Z,0.20
2023-04-27T12:23:52.813Z,0.20
2023-04-27T12:26:21.685Z,0.20
2023-04-27T12:28:51.174Z,0.20
2023-04-27T12:31:26.790Z,0.23
2023-04-27T12:33:55.919Z,0.20
2023-04-27T12:36:23.897Z,0.20
2023-04-27T12:38:51.892Z,0.20
2023-04-27T12:41:19.903Z,0.20
2023-04-27T12:43:50.696Z,0.20
2023-04-27T12:46:20.818Z,0.13
2023-04-27T12:48:48.899Z,0.20
2023-04-27T12:51:18.029Z,0.10
2023-04-27T12:53:48.676Z,0.20
2023-04-27T12:56:17.681Z,0.10
2023-04-27T12:58:46.371Z,0.20
2023-04-27T13:01:15.685Z,0.20
2023-04-27T13:03:46.230Z,0.20
2023-04-27T13:06:14.832Z,0.10
2023-04-27T13:08:42.956Z,0.20
2023-04-27T13:11:13.004Z,0.20
2023-04-27T13:13:42.107Z,0.30
2023-04-27T13:16:12.248Z,0.20
2023-04-27T13:18:49.428Z,0.23
2023-04-27T13:21:20.393Z,0.30
2023-04-27T13:23:54.819Z,0.27
2023-04-27T13:26:29.594Z,0.20
2023-04-27T13:29:05.546Z,0.20
2023-04-27T13:31:36.018Z,0.20
2023-04-27T13:34:35.974Z,0.30
2023-04-27T13:37:05.534Z,0.20
2023-04-27T13:39:34.129Z,0.20
2023-04-27T13:42:10.157Z,0.20
2023-04-27T13:44:40.146Z,0.20
2023-04-27T13:47:10.206Z,0.20
2023-04-27T13:49:39.601Z,0.20
2023-04-27T13:52:08.048Z,0.23
2023-04-27T13:54:40.243Z,0.30
2023-04-27T13:57:09.406Z,0.20
2023-04-27T13:59:37.522Z,0.20
2023-04-27T14:02:06.518Z,0.20
2023-04-27T14:04:34.909Z,0.20
2023-04-27T14:07:04.553Z,0.20
2023-04-27T14:09:33.343Z,0.20
2023-04-27T14:12:02.792Z,0.20
2023-04-27T14:14:30.764Z,0.20
2023-04-27T14:16:59.010Z,0.20
2023-04-27T14:19:28.777Z,0.20
2023-04-27T14:21:57.571Z,0.20
2023-04-27T14:24:27.980Z,0.20
2023-04-27T14:26:57.063Z,0.10
2023-04-27T14:29:25.790Z,0.20
2023-04-27T14:31:55.969Z,0.20
2023-04-27T14:34:23.978Z,0.20
2023-04-27T14:36:55.345Z,0.20
2023-04-27T14:39:23.420Z,0.10
2023-04-27T14:41:53.762Z,0.20
2023-04-27T14:44:25.248Z,0.20
2023-04-27T14:46:53.503Z,0.20
2023-04-27T14:49:22.045Z,0.20
2023-04-27T14:51:50.443Z,0.20
2023-04-27T14:54:24.391Z,0.20
2023-04-27T14:56:58.624Z,0.20
2023-04-27T14:59:26.823Z,0.20
2023-04-27T15:01:57.819Z,0.20
2023-04-27T15:04:26.666Z,0.20
2023-04-27T15:06:55.443Z,0.17
2023-04-27T15:09:24.668Z,0.20
2023-04-27T15:11:56.275Z,0.20
2023-04-27T15:14:27.457Z,0.20
2023-04-27T15:16:55.235Z,0.20
2023-04-27T15:19:31.989Z,0.20
2023-04-27T15:21:59.813Z,0.20
2023-04-27T15:24:27.712Z,0.20
2023-04-27T15:26:59.518Z,0.20
2023-04-27T15:29:28.250Z,0.20
2023-04-27T15:31:57.520Z,0.20
2023-04-27T15:34:26.094Z,0.20
2023-04-27T15:36:54.346Z,0.22
2023-04-27T15:39:22.528Z,0.20
2023-04-27T15:41:50.828Z,0.20
2023-04-27T15:44:21.580Z,0.20
2023-04-27T15:46:49.559Z,0.20
2023-04-27T15:49:17.592Z,0.30
2023-04-27T15:51:46.717Z,0.20
2023-04-27T15:54:14.896Z,0.20
2023-04-27T15:56:42.914Z,0.30
2023-04-27T15:59:12.236Z,0.20
2023-04-27T16:01:43.659Z,0.20
2023-04-27T16:04:11.699Z,0.20
2023-04-27T16:06:42.935Z,0.20
2023-04-27T16:09:11.687Z,0.20
2023-04-27T16:11:47.313Z,0.20
2023-04-27T16:14:15.656Z,0.30
2023-04-27T16:16:51.418Z,0.20
2023-04-27T16:19:19.818Z,0.20
2023-04-27T16:21:51.529Z,0.30
2023-04-27T16:24:20.448Z,0.20
2023-04-27T16:26:49.190Z,0.20
2023-04-27T16:29:21.598Z,0.30
2023-04-27T16:31:54.769Z,0.27
2023-04-27T16:34:23.617Z,0.20
2023-04-27T16:36:52.275Z,0.30
2023-04-27T16:39:20.254Z,0.20
2023-04-27T16:41:48.925Z,0.20
2023-04-27T16:44:18.286Z,0.27
2023-04-27T16:46:47.532Z,0.30
2023-04-27T16:49:17.588Z,0.30
2023-04-27T16:51:46.157Z,0.27
2023-04-27T16:54:16.588Z,0.30
2023-04-27T16:56:45.937Z,0.20
2023-04-27T16:59:15.417Z,0.20
2023-04-27T17:01:44.236Z,0.20
2023-04-27T17:04:16.892Z,0.20
2023-04-27T17:06:49.965Z,0.20
2023-04-27T17:09:24.547Z,0.20
2023-04-27T17:11:52.400Z,0.30
2023-04-27T17:14:22.954Z,0.20
2023-04-27T17:16:52.157Z,0.20
2023-04-27T17:19:20.308Z,0.20
2023-04-27T17:21:51.817Z,0.20
2023-04-27T17:24:20.256Z,0.20
2023-04-27T17:26:48.470Z,0.20
2023-04-27T17:29:19.281Z,0.20
2023-04-27T17:31:52.052Z,0.20
2023-04-27T17:34:19.956Z,0.30
2023-04-27T17:37:34.668Z,0.20
2023-04-27T17:40:16.607Z,0.20
2023-04-27T17:43:00.310Z,0.20
2023-04-27T17:45:52.559Z,0.20
2023-04-27T17:48:25.427Z,0.20
2023-04-27T17:50:54.654Z,0.30
2023-04-27T17:53:22.735Z,0.20
2023-04-27T17:55:58.772Z,0.20
2023-04-27T17:58:35.280Z,0.30
2023-04-27T18:01:05.000Z,0.20
2023-04-27T18:03:35.645Z,0.20
2023-04-27T18:06:08.127Z,0.20
2023-04-27T18:08:36.634Z,0.20
2023-04-27T18:11:12.012Z,0.20
2023-04-27T18:13:40.670Z,0.20
2023-04-27T18:16:09.790Z,0.20
2023-04-27T18:18:39.234Z,0.30
2023-04-27T18:21:10.598Z,0.20
2023-04-27T18:23:47.246Z,0.20
2023-04-27T18:26:18.118Z,0.23
2023-04-27T18:28:47.892Z,0.20
2023-04-27T18:31:23.727Z,0.30
2023-04-27T18:34:00.970Z,0.20
2023-04-27T18:36:30.257Z,0.20
2023-04-27T18:38:59.685Z,0.20
2023-04-27T18:41:33.296Z,0.30
2023-04-27T18:44:09.854Z,0.20
2023-04-27T18:46:49.871Z,0.30
2023-04-27T18:49:18.288Z,0.30
2023-04-27T18:51:48.251Z,0.20
2023-04-27T18:54:19.283Z,0.20
2023-04-27T18:56:53.859Z,0.30
2023-04-27T18:59:24.841Z,0.30
2023-04-27T19:01:52.934Z,0.30
2023-04-27T19:04:22.589Z,0.30
2023-04-27T19:06:59.719Z,0.20
2023-04-27T19:09:28.158Z,0.20
2023-04-27T19:12:03.401Z,0.30
2023-04-27T19:14:32.157Z,0.30
2023-04-27T19:17:02.830Z,0.30
2023-04-27T19:19:32.356Z,0.30
2023-04-27T19:22:03.791Z,0.30
2023-04-27T19:24:37.788Z,0.37
2023-04-27T19:27:09.169Z,0.30
2023-04-27T19:29:56.753Z,0.20
2023-04-27T19:32:27.209Z,0.30
2023-04-27T19:34:56.071Z,0.30
2023-04-27T19:37:25.234Z,0.30
2023-04-27T19:39:55.772Z,0.40
2023-04-27T19:42:26.263Z,0.30
2023-04-27T19:44:55.806Z,0.23
2023-04-27T19:47:24.724Z,0.20
2023-04-27T19:49:53.725Z,0.30
2023-04-27T19:52:21.693Z,0.20
2023-04-27T19:54:52.681Z,0.30
2023-04-27T19:57:21.786Z,0.30
2023-04-27T19:59:53.014Z,0.30
2023-04-27T20:02:21.583Z,0.23
2023-04-27T20:04:50.629Z,0.30
2023-04-27T20:07:25.016Z,0.30
2023-04-27T20:09:53.903Z,0.30
2023-04-27T20:12:40.877Z,0.30
2023-04-27T20:15:13.326Z,0.30
2023-04-27T20:17:42.910Z,0.30
2023-04-27T20:20:12.059Z,0.30
2023-04-27T20:22:48.145Z,0.30
2023-04-27T20:25:16.425Z,0.30
2023-04-27T20:27:46.870Z,0.30
2023-04-27T20:30:16.437Z,0.30
2023-04-27T20:32:46.555Z,0.30
2023-04-27T20:35:14.877Z,0.30
2023-04-27T20:37:45.255Z,0.30
2023-04-27T20:40:18.265Z,0.40
2023-04-27T20:42:49.540Z,0.30
2023-04-27T20:45:19.771Z,0.30
2023-04-27T20:47:47.859Z,0.30
2023-04-27T20:50:15.950Z,0.30
2023-04-27T20:52:44.224Z,0.30
2023-04-27T20:55:13.309Z,0.30
2023-04-27T20:57:44.616Z,0.30
2023-04-27T21:00:15.385Z,0.30
2023-04-27T21:02:44.911Z,0.30
2023-04-27T21:05:13.006Z,0.33
2023-04-27T21:07:44.154Z,0.23
2023-04-27T21:10:17.973Z,0.30
2023-04-27T21:12:46.076Z,0.20
2023-04-27T21:15:15.110Z,0.30
2023-04-27T21:17:54.584Z,0.20
2023-04-27T21:20:28.450Z,0.30
2023-04-27T21:22:58.860Z,0.30
2023-04-27T21:25:26.872Z,0.23
2023-04-27T21:27:57.554Z,0.30
2023-04-27T21:30:26.176Z,0.30
2023-04-27T21:32:55.499Z,0.33
2023-04-27T21:35:23.721Z,0.27
2023-04-27T21:37:51.608Z,0.20
2023-04-27T21:40:20.951Z,0.30
2023-04-27T21:42:51.303Z,0.40
2023-04-27T21:45:23.348Z,0.40
2023-04-27T21:47:51.614Z,0.40
2023-04-27T21:50:24.581Z,0.30
2023-04-27T21:52:54.434Z,0.40
2023-04-27T21:55:23.081Z,0.30
2023-04-27T21:57:51.451Z,0.40
2023-04-27T22:00:19.658Z,0.40
2023-04-27T22:02:50.595Z,0.40
2023-04-27T22:05:29.457Z,0.37
2023-04-27T22:08:03.533Z,0.30
2023-04-27T22:10:34.164Z,0.43
2023-04-27T22:13:28.529Z,0.40
2023-04-27T22:15:57.957Z,0.30
2023-04-27T22:18:28.135Z,0.37
2023-04-27T22:20:58.243Z,0.40
2023-04-27T22:23:26.669Z,0.40
2023-04-27T22:25:54.704Z,0.40
2023-04-27T22:28:25.097Z,0.40
2023-04-27T22:30:54.539Z,0.43
2023-04-27T22:33:22.707Z,0.40
2023-04-27T22:35:50.789Z,0.50
2023-04-27T22:38:30.831Z,0.30
2023-04-27T22:41:09.366Z,0.40
2023-04-27T22:43:42.536Z,0.40
2023-04-27T22:46:12.735Z,0.50
2023-04-27T22:48:41.866Z,0.30
2023-04-27T22:51:13.169Z,0.40
2023-04-27T22:53:42.677Z,0.50
2023-04-27T22:56:10.781Z,0.40
2023-04-27T22:58:40.289Z,0.50
2023-04-27T23:01:12.218Z,0.40
2023-04-27T23:03:47.862Z,0.50
2023-04-27T23:06:29.159Z,0.40
2023-04-27T23:09:00.304Z,0.33
2023-04-27T23:11:29.111Z,0.50
2023-04-27T23:13:57.480Z,0.47
2023-04-27T23:16:27.519Z,0.40
2023-04-27T23:18:57.836Z,0.40
2023-04-27T23:21:29.468Z,0.40
2023-04-27T23:24:01.552Z,0.40
2023-04-27T23:26:31.098Z,0.40
2023-04-27T23:28:59.098Z,0.40
2023-04-27T23:31:32.115Z,0.50
2023-04-27T23:34:00.187Z,0.40
2023-04-27T23:36:30.784Z,0.47
2023-04-27T23:39:00.140Z,0.50
2023-04-27T23:41:28.783Z,0.40
2023-04-27T23:43:58.132Z,0.47
2023-04-27T23:46:26.436Z,0.30
2023-04-27T23:48:54.575Z,0.40
2023-04-27T23:51:25.493Z,0.40
2023-04-27T23:53:53.942Z,0.40
2023-04-27T23:56:24.816Z,0.40
2023-04-27T23:58:53.081Z,0.47
